sensor_id;sensor_type;location;lat;lon;timestamp;P1;durP1;ratioP1;P2;durP2;ratioP2
20890;SDS011;10605;52.968;8.844;2023-04-25T00:01:30;14.35;;;7.30;;
20890;SDS011;10605;52.968;8.844;2023-04-25T00:03:57;21.92;;;5.55;;
20890;SDS011;10605;52.968;8.844;2023-04-25T00:06:22;23.23;;;6.20;;
20890;SDS011;10605;52.968;8.844;2023-04-25T00:08:51;22.20;;;5.32;;
20890;SDS011;10605;52.968;8.844;2023-04-25T00:11:18;26.77;;;5.57;;
20890;SDS011;10605;52.968;8.844;2023-04-25T00:13:43;25.65;;;4.72;;
20890;SDS011;10605;52.968;8.844;2023-04-25T00:16:11;20.83;;;4.57;;
20890;SDS011;10605;52.968;8.844;2023-04-25T00:18:38;33.22;;;5.63;;
20890;SDS011;10605;52.968;8.844;2023-04-25T00:21:04;32.35;;;5.93;;
20890;SDS011;10605;52.968;8.844;2023-04-25T00:23:31;26.40;;;5.20;;
20890;SDS011;10605;52.968;8.844;2023-04-25T00:25:56;20.33;;;5.85;;
20890;SDS011;10605;52.968;8.844;2023-04-25T00:28:22;32.50;;;5.95;;
20890;SDS011;10605;52.968;8.844;2023-04-25T00:30:48;30.02;;;6.60;;
20890;SDS011;10605;52.968;8.844;2023-04-25T00:33:13;26.50;;;6.75;;
20890;SDS011;10605;52.968;8.844;2023-04-25T00:35:39;22.85;;;5.78;;
20890;SDS011;10605;52.968;8.844;2023-04-25T00:38:04;29.52;;;6.30;;
20890;SDS011;10605;52.968;8.844;2023-04-25T00:40:30;33.33;;;6.60;;
20890;SDS011;10605;52.968;8.844;2023-04-25T00:42:56;29.85;;;6.90;;
20890;SDS011;10605;52.968;8.844;2023-04-25T00:45:21;37.83;;;7.57;;
20890;SDS011;10605;52.968;8.844;2023-04-25T00:47:57;31.65;;;6.95;;
20890;SDS011;10605;52.968;8.844;2023-04-25T00:50:23;29.98;;;6.28;;
20890;SDS011;10605;52.968;8.844;2023-04-25T00:52:49;38.60;;;6.95;;
20890;SDS011;10605;52.968;8.844;2023-04-25T00:55:15;35.22;;;6.65;;
20890;SDS011;10605;52.968;8.844;2023-04-25T00:57:42;28.73;;;6.40;;
20890;SDS011;10605;52.968;8.844;2023-04-25T01:00:08;35.08;;;6.78;;
20890;SDS011;10605;52.968;8.844;2023-04-25T01:02:36;34.90;;;5.72;;
20890;SDS011;10605;52.968;8.844;2023-04-25T01:05:02;28.05;;;6.03;;
20890;SDS011;10605;52.968;8.844;2023-04-25T01:07:29;39.60;;;6.13;;
20890;SDS011;10605;52.968;8.844;2023-04-25T01:09:55;30.00;;;5.72;;
20890;SDS011;10605;52.968;8.844;2023-04-25T01:12:21;44.70;;;6.28;;
20890;SDS011;10605;52.968;8.844;2023-04-25T01:14:47;31.40;;;6.75;;
20890;SDS011;10605;52.968;8.844;2023-04-25T01:17:12;39.08;;;6.85;;
20890;SDS011;10605;52.968;8.844;2023-04-25T01:19:40;37.65;;;7.10;;
20890;SDS011;10605;52.968;8.844;2023-04-25T01:22:06;35.47;;;7.25;;
20890;SDS011;10605;52.968;8.844;2023-04-25T01:24:32;30.70;;;5.43;;
20890;SDS011;10605;52.968;8.844;2023-04-25T01:26:58;28.88;;;6.03;;
20890;SDS011;10605;52.968;8.844;2023-04-25T01:29:27;40.72;;;6.22;;
20890;SDS011;10605;52.968;8.844;2023-04-25T01:31:53;34.92;;;6.68;;
20890;SDS011;10605;52.968;8.844;2023-04-25T01:34:19;35.80;;;6.20;;
20890;SDS011;10605;52.968;8.844;2023-04-25T01:36:46;38.92;;;6.57;;
20890;SDS011;10605;52.968;8.844;2023-04-25T01:39:15;32.17;;;6.10;;
20890;SDS011;10605;52.968;8.844;2023-04-25T01:41:41;32.17;;;6.10;;
20890;SDS011;10605;52.968;8.844;2023-04-25T01:44:07;32.55;;;5.95;;
20890;SDS011;10605;52.968;8.844;2023-04-25T01:46:33;40.53;;;5.82;;
20890;SDS011;10605;52.968;8.844;2023-04-25T01:48:59;23.92;;;5.03;;
20890;SDS011;10605;52.968;8.844;2023-04-25T01:51:25;33.97;;;6.25;;
20890;SDS011;10605;52.968;8.844;2023-04-25T01:53:51;37.78;;;6.55;;
20890;SDS011;10605;52.968;8.844;2023-04-25T01:56:17;37.22;;;6.38;;
20890;SDS011;10605;52.968;8.844;2023-04-25T01:58:43;23.95;;;5.65;;
20890;SDS011;10605;52.968;8.844;2023-04-25T02:01:09;29.58;;;6.78;;
20890;SDS011;10605;52.968;8.844;2023-04-25T02:03:35;40.25;;;6.15;;
20890;SDS011;10605;52.968;8.844;2023-04-25T02:06:01;38.10;;;6.80;;
20890;SDS011;10605;52.968;8.844;2023-04-25T02:08:27;31.33;;;6.05;;
20890;SDS011;10605;52.968;8.844;2023-04-25T02:10:52;38.95;;;5.72;;
20890;SDS011;10605;52.968;8.844;2023-04-25T02:13:18;34.65;;;6.25;;
20890;SDS011;10605;52.968;8.844;2023-04-25T02:15:44;35.13;;;6.65;;
20890;SDS011;10605;52.968;8.844;2023-04-25T02:18:09;27.77;;;5.93;;
20890;SDS011;10605;52.968;8.844;2023-04-25T02:20:36;33.58;;;6.45;;
20890;SDS011;10605;52.968;8.844;2023-04-25T02:23:02;32.20;;;5.93;;
20890;SDS011;10605;52.968;8.844;2023-04-25T02:25:28;33.13;;;5.50;;
20890;SDS011;10605;52.968;8.844;2023-04-25T02:27:53;36.22;;;6.97;;
20890;SDS011;10605;52.968;8.844;2023-04-25T02:30:19;27.83;;;6.30;;
20890;SDS011;10605;52.968;8.844;2023-04-25T02:32:45;31.27;;;6.05;;
20890;SDS011;10605;52.968;8.844;2023-04-25T02:35:11;30.75;;;6.20;;
20890;SDS011;10605;52.968;8.844;2023-04-25T02:37:37;23.42;;;5.30;;
20890;SDS011;10605;52.968;8.844;2023-04-25T02:40:04;32.00;;;6.00;;
20890;SDS011;10605;52.968;8.844;2023-04-25T02:42:30;32.70;;;6.30;;
20890;SDS011;10605;52.968;8.844;2023-04-25T02:44:56;41.38;;;5.75;;
20890;SDS011;10605;52.968;8.844;2023-04-25T02:47:21;32.80;;;5.47;;
20890;SDS011;10605;52.968;8.844;2023-04-25T02:49:47;38.40;;;6.05;;
20890;SDS011;10605;52.968;8.844;2023-04-25T02:52:13;32.33;;;6.18;;
20890;SDS011;10605;52.968;8.844;2023-04-25T02:54:42;30.00;;;6.18;;
20890;SDS011;10605;52.968;8.844;2023-04-25T02:57:07;29.05;;;6.10;;
20890;SDS011;10605;52.968;8.844;2023-04-25T02:59:33;25.38;;;5.88;;
20890;SDS011;10605;52.968;8.844;2023-04-25T03:01:59;28.30;;;5.65;;
20890;SDS011;10605;52.968;8.844;2023-04-25T03:04:25;32.63;;;6.43;;
20890;SDS011;10605;52.968;8.844;2023-04-25T03:06:51;25.65;;;5.38;;
20890;SDS011;10605;52.968;8.844;2023-04-25T03:09:16;33.13;;;6.95;;
20890;SDS011;10605;52.968;8.844;2023-04-25T03:11:43;33.00;;;6.03;;
20890;SDS011;10605;52.968;8.844;2023-04-25T03:14:10;29.65;;;6.00;;
20890;SDS011;10605;52.968;8.844;2023-04-25T03:16:36;26.95;;;6.38;;
20890;SDS011;10605;52.968;8.844;2023-04-25T03:19:02;29.45;;;6.13;;
20890;SDS011;10605;52.968;8.844;2023-04-25T03:21:28;23.88;;;6.32;;
20890;SDS011;10605;52.968;8.844;2023-04-25T03:23:54;36.33;;;7.07;;
20890;SDS011;10605;52.968;8.844;2023-04-25T03:26:20;31.30;;;6.68;;
20890;SDS011;10605;52.968;8.844;2023-04-25T03:28:45;31.83;;;7.93;;
20890;SDS011;10605;52.968;8.844;2023-04-25T03:31:11;28.23;;;6.47;;
20890;SDS011;10605;52.968;8.844;2023-04-25T03:33:36;36.60;;;6.47;;
20890;SDS011;10605;52.968;8.844;2023-04-25T03:36:02;32.35;;;5.60;;
20890;SDS011;10605;52.968;8.844;2023-04-25T03:38:28;29.70;;;6.68;;
20890;SDS011;10605;52.968;8.844;2023-04-25T03:40:54;28.67;;;6.18;;
20890;SDS011;10605;52.968;8.844;2023-04-25T03:43:21;34.40;;;6.30;;
20890;SDS011;10605;52.968;8.844;2023-04-25T03:45:46;34.95;;;6.40;;
20890;SDS011;10605;52.968;8.844;2023-04-25T03:48:12;32.17;;;5.78;;
20890;SDS011;10605;52.968;8.844;2023-04-25T03:50:38;29.98;;;5.82;;
20890;SDS011;10605;52.968;8.844;2023-04-25T03:53:03;26.42;;;5.93;;
20890;SDS011;10605;52.968;8.844;2023-04-25T03:55:29;31.45;;;5.25;;
20890;SDS011;10605;52.968;8.844;2023-04-25T03:57:55;26.77;;;5.30;;
20890;SDS011;10605;52.968;8.844;2023-04-25T04:00:23;33.65;;;5.85;;
20890;SDS011;10605;52.968;8.844;2023-04-25T04:02:48;28.05;;;6.57;;
20890;SDS011;10605;52.968;8.844;2023-04-25T04:05:14;24.58;;;5.35;;
20890;SDS011;10605;52.968;8.844;2023-04-25T04:07:40;25.58;;;6.85;;
20890;SDS011;10605;52.968;8.844;2023-04-25T04:10:07;35.58;;;6.00;;
20890;SDS011;10605;52.968;8.844;2023-04-25T04:12:36;17.23;;;4.82;;
20890;SDS011;10605;52.968;8.844;2023-04-25T04:15:05;25.10;;;6.00;;
20890;SDS011;10605;52.968;8.844;2023-04-25T04:17:32;30.02;;;6.07;;
20890;SDS011;10605;52.968;8.844;2023-04-25T04:19:57;25.25;;;5.05;;
20890;SDS011;10605;52.968;8.844;2023-04-25T04:22:23;27.10;;;6.32;;
20890;SDS011;10605;52.968;8.844;2023-04-25T04:24:49;30.83;;;4.93;;
20890;SDS011;10605;52.968;8.844;2023-04-25T04:27:18;29.40;;;5.30;;
20890;SDS011;10605;52.968;8.844;2023-04-25T04:29:44;35.00;;;4.93;;
20890;SDS011;10605;52.968;8.844;2023-04-25T04:32:11;20.38;;;5.20;;
20890;SDS011;10605;52.968;8.844;2023-04-25T04:34:37;19.10;;;4.38;;
20890;SDS011;10605;52.968;8.844;2023-04-25T04:37:04;18.63;;;5.00;;
20890;SDS011;10605;52.968;8.844;2023-04-25T04:39:32;16.00;;;4.13;;
20890;SDS011;10605;52.968;8.844;2023-04-25T04:42:00;20.13;;;4.00;;
20890;SDS011;10605;52.968;8.844;2023-04-25T04:44:30;25.48;;;4.25;;
20890;SDS011;10605;52.968;8.844;2023-04-25T04:46:57;14.65;;;4.45;;
20890;SDS011;10605;52.968;8.844;2023-04-25T04:49:23;25.95;;;4.03;;
20890;SDS011;10605;52.968;8.844;2023-04-25T04:51:49;22.75;;;4.47;;
20890;SDS011;10605;52.968;8.844;2023-04-25T04:54:15;23.08;;;4.25;;
20890;SDS011;10605;52.968;8.844;2023-04-25T04:56:41;27.33;;;4.18;;
20890;SDS011;10605;52.968;8.844;2023-04-25T04:59:07;27.20;;;4.65;;
20890;SDS011;10605;52.968;8.844;2023-04-25T05:01:32;23.05;;;4.60;;
20890;SDS011;10605;52.968;8.844;2023-04-25T05:04:00;21.85;;;4.22;;
20890;SDS011;10605;52.968;8.844;2023-04-25T05:06:26;17.80;;;3.72;;
20890;SDS011;10605;52.968;8.844;2023-04-25T05:08:54;20.35;;;4.72;;
20890;SDS011;10605;52.968;8.844;2023-04-25T05:11:20;20.80;;;3.83;;
20890;SDS011;10605;52.968;8.844;2023-04-25T05:13:50;20.17;;;3.80;;
20890;SDS011;10605;52.968;8.844;2023-04-25T05:16:17;28.52;;;4.18;;
20890;SDS011;10605;52.968;8.844;2023-04-25T05:18:43;18.55;;;4.07;;
20890;SDS011;10605;52.968;8.844;2023-04-25T05:21:09;16.98;;;3.53;;
20890;SDS011;10605;52.968;8.844;2023-04-25T05:23:34;24.70;;;3.95;;
20890;SDS011;10605;52.968;8.844;2023-04-25T05:26:00;20.15;;;4.10;;
20890;SDS011;10605;52.968;8.844;2023-04-25T05:28:28;21.38;;;4.05;;
20890;SDS011;10605;52.968;8.844;2023-04-25T05:30:54;20.48;;;4.13;;
20890;SDS011;10605;52.968;8.844;2023-04-25T05:33:20;19.50;;;3.50;;
20890;SDS011;10605;52.968;8.844;2023-04-25T05:35:46;26.20;;;3.67;;
20890;SDS011;10605;52.968;8.844;2023-04-25T05:38:11;21.70;;;3.72;;
20890;SDS011;10605;52.968;8.844;2023-04-25T05:40:37;16.75;;;3.38;;
20890;SDS011;10605;52.968;8.844;2023-04-25T05:43:03;28.58;;;3.80;;
20890;SDS011;10605;52.968;8.844;2023-04-25T05:45:29;15.57;;;3.42;;
20890;SDS011;10605;52.968;8.844;2023-04-25T05:47:54;21.80;;;4.07;;
20890;SDS011;10605;52.968;8.844;2023-04-25T05:50:20;18.23;;;3.35;;
20890;SDS011;10605;52.968;8.844;2023-04-25T05:52:46;11.02;;;3.17;;
20890;SDS011;10605;52.968;8.844;2023-04-25T05:55:11;18.35;;;3.50;;
20890;SDS011;10605;52.968;8.844;2023-04-25T05:57:37;21.27;;;3.85;;
20890;SDS011;10605;52.968;8.844;2023-04-25T06:00:06;21.63;;;3.58;;
20890;SDS011;10605;52.968;8.844;2023-04-25T06:02:34;16.70;;;2.95;;
20890;SDS011;10605;52.968;8.844;2023-04-25T06:05:00;16.17;;;2.97;;
20890;SDS011;10605;52.968;8.844;2023-04-25T06:07:28;11.52;;;2.88;;
20890;SDS011;10605;52.968;8.844;2023-04-25T06:09:55;16.33;;;2.70;;
20890;SDS011;10605;52.968;8.844;2023-04-25T06:12:21;11.45;;;2.90;;
20890;SDS011;10605;52.968;8.844;2023-04-25T06:14:46;11.38;;;2.90;;
20890;SDS011;10605;52.968;8.844;2023-04-25T06:17:12;15.00;;;2.97;;
20890;SDS011;10605;52.968;8.844;2023-04-25T06:19:38;14.60;;;2.47;;
20890;SDS011;10605;52.968;8.844;2023-04-25T06:22:04;7.55;;;2.40;;
20890;SDS011;10605;52.968;8.844;2023-04-25T06:24:29;21.08;;;3.08;;
20890;SDS011;10605;52.968;8.844;2023-04-25T06:26:55;7.20;;;2.38;;
20890;SDS011;10605;52.968;8.844;2023-04-25T06:29:21;11.68;;;2.63;;
20890;SDS011;10605;52.968;8.844;2023-04-25T06:31:46;13.05;;;2.75;;
20890;SDS011;10605;52.968;8.844;2023-04-25T06:34:12;10.73;;;2.10;;
20890;SDS011;10605;52.968;8.844;2023-04-25T06:36:38;14.05;;;2.58;;
20890;SDS011;10605;52.968;8.844;2023-04-25T06:39:03;6.63;;;2.20;;
20890;SDS011;10605;52.968;8.844;2023-04-25T06:41:29;14.18;;;2.55;;
20890;SDS011;10605;52.968;8.844;2023-04-25T06:43:55;10.80;;;2.20;;
20890;SDS011;10605;52.968;8.844;2023-04-25T06:46:21;11.40;;;2.08;;
20890;SDS011;10605;52.968;8.844;2023-04-25T06:48:46;10.77;;;2.40;;
20890;SDS011;10605;52.968;8.844;2023-04-25T06:51:13;9.73;;;2.42;;
20890;SDS011;10605;52.968;8.844;2023-04-25T06:53:39;7.90;;;2.00;;
20890;SDS011;10605;52.968;8.844;2023-04-25T06:56:05;11.65;;;2.53;;
20890;SDS011;10605;52.968;8.844;2023-04-25T06:58:31;8.13;;;2.15;;
20890;SDS011;10605;52.968;8.844;2023-04-25T07:00:57;6.00;;;2.22;;
20890;SDS011;10605;52.968;8.844;2023-04-25T07:03:22;6.95;;;2.05;;
20890;SDS011;10605;52.968;8.844;2023-04-25T07:05:49;8.18;;;2.40;;
20890;SDS011;10605;52.968;8.844;2023-04-25T07:08:15;9.63;;;2.17;;
20890;SDS011;10605;52.968;8.844;2023-04-25T07:10:40;8.25;;;2.20;;
20890;SDS011;10605;52.968;8.844;2023-04-25T07:13:06;6.32;;;1.95;;
20890;SDS011;10605;52.968;8.844;2023-04-25T07:15:32;13.85;;;2.13;;
20890;SDS011;10605;52.968;8.844;2023-04-25T07:17:57;8.52;;;2.53;;
20890;SDS011;10605;52.968;8.844;2023-04-25T07:20:23;7.72;;;1.90;;
20890;SDS011;10605;52.968;8.844;2023-04-25T07:22:49;15.07;;;2.30;;
20890;SDS011;10605;52.968;8.844;2023-04-25T07:25:15;5.55;;;1.92;;
20890;SDS011;10605;52.968;8.844;2023-04-25T07:27:41;9.57;;;2.15;;
20890;SDS011;10605;52.968;8.844;2023-04-25T07:30:07;7.13;;;1.80;;
20890;SDS011;10605;52.968;8.844;2023-04-25T07:32:33;9.45;;;2.35;;
20890;SDS011;10605;52.968;8.844;2023-04-25T07:34:59;7.70;;;2.00;;
20890;SDS011;10605;52.968;8.844;2023-04-25T07:37:24;9.20;;;2.13;;
20890;SDS011;10605;52.968;8.844;2023-04-25T07:39:51;6.72;;;2.03;;
20890;SDS011;10605;52.968;8.844;2023-04-25T07:42:17;6.88;;;2.28;;
20890;SDS011;10605;52.968;8.844;2023-04-25T07:44:42;5.72;;;1.98;;
20890;SDS011;10605;52.968;8.844;2023-04-25T07:47:08;9.13;;;1.80;;
20890;SDS011;10605;52.968;8.844;2023-04-25T07:49:35;4.30;;;1.50;;
20890;SDS011;10605;52.968;8.844;2023-04-25T07:52:02;7.10;;;1.95;;
20890;SDS011;10605;52.968;8.844;2023-04-25T07:54:28;13.43;;;3.15;;
20890;SDS011;10605;52.968;8.844;2023-04-25T07:56:54;9.50;;;2.13;;
20890;SDS011;10605;52.968;8.844;2023-04-25T07:59:20;5.82;;;1.75;;
20890;SDS011;10605;52.968;8.844;2023-04-25T08:01:46;7.68;;;2.20;;
20890;SDS011;10605;52.968;8.844;2023-04-25T08:04:12;7.30;;;1.95;;
20890;SDS011;10605;52.968;8.844;2023-04-25T08:06:38;7.57;;;2.05;;
20890;SDS011;10605;52.968;8.844;2023-04-25T08:09:05;10.10;;;2.25;;
20890;SDS011;10605;52.968;8.844;2023-04-25T08:11:31;9.35;;;2.00;;
20890;SDS011;10605;52.968;8.844;2023-04-25T08:13:56;8.52;;;1.90;;
20890;SDS011;10605;52.968;8.844;2023-04-25T08:16:22;4.10;;;1.45;;
20890;SDS011;10605;52.968;8.844;2023-04-25T08:18:48;8.18;;;2.00;;
20890;SDS011;10605;52.968;8.844;2023-04-25T08:21:15;5.25;;;2.05;;
20890;SDS011;10605;52.968;8.844;2023-04-25T08:23:41;4.10;;;1.63;;
20890;SDS011;10605;52.968;8.844;2023-04-25T08:26:06;9.05;;;1.90;;
20890;SDS011;10605;52.968;8.844;2023-04-25T08:28:32;8.15;;;1.98;;
20890;SDS011;10605;52.968;8.844;2023-04-25T08:30:58;10.45;;;2.28;;
20890;SDS011;10605;52.968;8.844;2023-04-25T08:33:23;8.43;;;2.03;;
20890;SDS011;10605;52.968;8.844;2023-04-25T08:35:50;6.40;;;1.73;;
20890;SDS011;10605;52.968;8.844;2023-04-25T08:38:15;8.10;;;1.90;;
20890;SDS011;10605;52.968;8.844;2023-04-25T08:40:41;9.85;;;2.42;;
20890;SDS011;10605;52.968;8.844;2023-04-25T08:43:08;9.40;;;1.95;;
20890;SDS011;10605;52.968;8.844;2023-04-25T08:45:38;8.13;;;1.88;;
20890;SDS011;10605;52.968;8.844;2023-04-25T08:48:07;6.43;;;1.60;;
20890;SDS011;10605;52.968;8.844;2023-04-25T08:50:40;6.47;;;1.45;;
20890;SDS011;10605;52.968;8.844;2023-04-25T08:53:16;6.05;;;1.80;;
20890;SDS011;10605;52.968;8.844;2023-04-25T08:55:46;7.72;;;1.83;;
20890;SDS011;10605;52.968;8.844;2023-04-25T08:58:14;8.85;;;1.52;;
20890;SDS011;10605;52.968;8.844;2023-04-25T09:00:41;6.88;;;1.60;;
20890;SDS011;10605;52.968;8.844;2023-04-25T09:03:06;9.10;;;2.30;;
20890;SDS011;10605;52.968;8.844;2023-04-25T09:05:33;5.63;;;2.28;;
20890;SDS011;10605;52.968;8.844;2023-04-25T09:07:59;6.80;;;2.22;;
20890;SDS011;10605;52.968;8.844;2023-04-25T09:10:26;5.93;;;1.80;;
20890;SDS011;10605;52.968;8.844;2023-04-25T09:15:57;7.75;;;1.55;;
20890;SDS011;10605;52.968;8.844;2023-04-25T09:18:33;3.72;;;1.77;;
20890;SDS011;10605;52.968;8.844;2023-04-25T09:21:12;4.90;;;1.50;;
20890;SDS011;10605;52.968;8.844;2023-04-25T09:23:38;6.28;;;1.73;;
20890;SDS011;10605;52.968;8.844;2023-04-25T09:26:06;7.32;;;1.40;;
20890;SDS011;10605;52.968;8.844;2023-04-25T09:28:33;4.07;;;1.42;;
20890;SDS011;10605;52.968;8.844;2023-04-25T09:31:00;14.02;;;1.35;;
20890;SDS011;10605;52.968;8.844;2023-04-25T09:33:30;7.60;;;1.10;;
20890;SDS011;10605;52.968;8.844;2023-04-25T09:36:04;6.82;;;1.75;;
20890;SDS011;10605;52.968;8.844;2023-04-25T09:38:32;5.13;;;1.38;;
20890;SDS011;10605;52.968;8.844;2023-04-25T09:41:06;3.65;;;1.35;;
20890;SDS011;10605;52.968;8.844;2023-04-25T09:43:32;3.50;;;1.33;;
20890;SDS011;10605;52.968;8.844;2023-04-25T09:45:58;5.40;;;1.60;;
20890;SDS011;10605;52.968;8.844;2023-04-25T09:48:25;8.32;;;1.52;;
20890;SDS011;10605;52.968;8.844;2023-04-25T09:51:08;4.45;;;1.13;;
20890;SDS011;10605;52.968;8.844;2023-04-25T09:53:40;3.40;;;0.95;;
20890;SDS011;10605;52.968;8.844;2023-04-25T09:56:07;1.90;;;0.80;;
20890;SDS011;10605;52.968;8.844;2023-04-25T09:58:35;1.88;;;0.85;;
20890;SDS011;10605;52.968;8.844;2023-04-25T10:01:03;3.80;;;0.82;;
20890;SDS011;10605;52.968;8.844;2023-04-25T10:03:31;4.43;;;0.85;;
20890;SDS011;10605;52.968;8.844;2023-04-25T10:06:01;3.92;;;0.98;;
20890;SDS011;10605;52.968;8.844;2023-04-25T10:08:33;2.10;;;0.80;;
20890;SDS011;10605;52.968;8.844;2023-04-25T10:11:06;1.90;;;1.20;;
20890;SDS011;10605;52.968;8.844;2023-04-25T10:13:34;6.40;;;1.23;;
20890;SDS011;10605;52.968;8.844;2023-04-25T10:16:01;2.20;;;0.82;;
20890;SDS011;10605;52.968;8.844;2023-04-25T10:18:28;5.25;;;1.23;;
20890;SDS011;10605;52.968;8.844;2023-04-25T10:20:59;6.38;;;1.33;;
20890;SDS011;10605;52.968;8.844;2023-04-25T10:23:26;2.67;;;0.90;;
20890;SDS011;10605;52.968;8.844;2023-04-25T10:25:53;2.28;;;0.80;;
20890;SDS011;10605;52.968;8.844;2023-04-25T10:28:20;7.03;;;1.02;;
20890;SDS011;10605;52.968;8.844;2023-04-25T10:36:13;7.97;;;1.50;;
20890;SDS011;10605;52.968;8.844;2023-04-25T10:38:42;7.70;;;1.30;;
20890;SDS011;10605;52.968;8.844;2023-04-25T10:41:09;3.42;;;0.90;;
20890;SDS011;10605;52.968;8.844;2023-04-25T10:43:37;4.93;;;1.17;;
20890;SDS011;10605;52.968;8.844;2023-04-25T10:46:14;6.13;;;1.30;;
20890;SDS011;10605;52.968;8.844;2023-04-25T10:51:19;4.80;;;1.55;;
20890;SDS011;10605;52.968;8.844;2023-04-25T10:56:23;9.18;;;1.13;;
20890;SDS011;10605;52.968;8.844;2023-04-25T10:58:51;5.00;;;1.30;;
20890;SDS011;10605;52.968;8.844;2023-04-25T11:01:27;4.10;;;1.08;;
20890;SDS011;10605;52.968;8.844;2023-04-25T11:04:29;4.45;;;0.93;;
20890;SDS011;10605;52.968;8.844;2023-04-25T11:09:43;7.60;;;1.38;;
20890;SDS011;10605;52.968;8.844;2023-04-25T11:12:10;2.35;;;1.05;;
20890;SDS011;10605;52.968;8.844;2023-04-25T11:14:37;4.40;;;1.30;;
20890;SDS011;10605;52.968;8.844;2023-04-25T11:17:03;3.08;;;1.38;;
20890;SDS011;10605;52.968;8.844;2023-04-25T11:19:29;2.85;;;1.33;;
20890;SDS011;10605;52.968;8.844;2023-04-25T11:21:58;3.05;;;1.00;;
20890;SDS011;10605;52.968;8.844;2023-04-25T11:24:26;2.15;;;1.20;;
20890;SDS011;10605;52.968;8.844;2023-04-25T11:26:53;7.50;;;1.30;;
20890;SDS011;10605;52.968;8.844;2023-04-25T11:29:21;4.22;;;1.70;;
20890;SDS011;10605;52.968;8.844;2023-04-25T11:31:48;3.92;;;1.30;;
20890;SDS011;10605;52.968;8.844;2023-04-25T11:34:17;4.07;;;1.25;;
20890;SDS011;10605;52.968;8.844;2023-04-25T11:36:43;5.15;;;1.08;;
20890;SDS011;10605;52.968;8.844;2023-04-25T11:39:10;3.17;;;1.00;;
20890;SDS011;10605;52.968;8.844;2023-04-25T11:41:37;5.18;;;1.45;;
20890;SDS011;10605;52.968;8.844;2023-04-25T11:44:03;4.82;;;1.33;;
20890;SDS011;10605;52.968;8.844;2023-04-25T11:46:30;5.07;;;1.10;;
20890;SDS011;10605;52.968;8.844;2023-04-25T11:48:56;5.63;;;1.70;;
20890;SDS011;10605;52.968;8.844;2023-04-25T11:51:22;3.92;;;1.20;;
20890;SDS011;10605;52.968;8.844;2023-04-25T11:53:48;5.07;;;1.25;;
20890;SDS011;10605;52.968;8.844;2023-04-25T11:56:13;6.65;;;1.20;;
20890;SDS011;10605;52.968;8.844;2023-04-25T12:01:39;5.20;;;1.33;;
20890;SDS011;10605;52.968;8.844;2023-04-25T12:04:13;5.47;;;1.10;;
20890;SDS011;10605;52.968;8.844;2023-04-25T12:06:46;2.92;;;1.20;;
20890;SDS011;10605;52.968;8.844;2023-04-25T12:09:13;4.80;;;1.40;;
20890;SDS011;10605;52.968;8.844;2023-04-25T12:11:47;4.20;;;1.15;;
20890;SDS011;10605;52.968;8.844;2023-04-25T12:14:20;6.90;;;1.33;;
20890;SDS011;10605;52.968;8.844;2023-04-25T12:17:00;11.00;;;1.50;;
20890;SDS011;10605;52.968;8.844;2023-04-25T12:19:46;5.20;;;1.20;;
20890;SDS011;10605;52.968;8.844;2023-04-25T12:22:21;4.40;;;1.40;;
20890;SDS011;10605;52.968;8.844;2023-04-25T12:24:48;3.47;;;1.48;;
20890;SDS011;10605;52.968;8.844;2023-04-25T12:27:15;2.58;;;1.23;;
20890;SDS011;10605;52.968;8.844;2023-04-25T12:29:50;6.32;;;1.00;;
20890;SDS011;10605;52.968;8.844;2023-04-25T12:32:16;5.25;;;1.27;;
20890;SDS011;10605;52.968;8.844;2023-04-25T12:34:42;4.32;;;1.38;;
20890;SDS011;10605;52.968;8.844;2023-04-25T12:37:08;7.75;;;1.80;;
20890;SDS011;10605;52.968;8.844;2023-04-25T12:39:34;2.63;;;0.98;;
20890;SDS011;10605;52.968;8.844;2023-04-25T12:42:00;4.15;;;1.05;;
20890;SDS011;10605;52.968;8.844;2023-04-25T12:44:26;5.10;;;0.80;;
20890;SDS011;10605;52.968;8.844;2023-04-25T12:46:51;1.77;;;0.88;;
20890;SDS011;10605;52.968;8.844;2023-04-25T12:49:17;2.40;;;0.95;;
20890;SDS011;10605;52.968;8.844;2023-04-25T12:51:43;1.10;;;0.68;;
20890;SDS011;10605;52.968;8.844;2023-04-25T12:54:09;3.90;;;1.00;;
20890;SDS011;10605;52.968;8.844;2023-04-25T12:56:35;3.67;;;1.15;;
20890;SDS011;10605;52.968;8.844;2023-04-25T12:59:01;3.17;;;1.17;;
20890;SDS011;10605;52.968;8.844;2023-04-25T13:01:30;7.45;;;1.35;;
20890;SDS011;10605;52.968;8.844;2023-04-25T13:03:56;2.78;;;1.58;;
20890;SDS011;10605;52.968;8.844;2023-04-25T13:06:22;9.98;;;1.48;;
20890;SDS011;10605;52.968;8.844;2023-04-25T13:08:48;4.95;;;1.20;;
20890;SDS011;10605;52.968;8.844;2023-04-25T13:11:13;3.35;;;1.20;;
20890;SDS011;10605;52.968;8.844;2023-04-25T13:13:39;4.85;;;1.05;;
20890;SDS011;10605;52.968;8.844;2023-04-25T13:16:06;3.75;;;1.15;;
20890;SDS011;10605;52.968;8.844;2023-04-25T13:18:35;5.35;;;1.10;;
20890;SDS011;10605;52.968;8.844;2023-04-25T13:21:01;2.15;;;1.20;;
20890;SDS011;10605;52.968;8.844;2023-04-25T13:23:27;4.30;;;1.10;;
20890;SDS011;10605;52.968;8.844;2023-04-25T13:25:57;3.05;;;1.10;;
20890;SDS011;10605;52.968;8.844;2023-04-25T13:28:26;3.38;;;1.33;;
20890;SDS011;10605;52.968;8.844;2023-04-25T13:30:52;1.77;;;1.10;;
20890;SDS011;10605;52.968;8.844;2023-04-25T13:33:19;4.45;;;1.17;;
20890;SDS011;10605;52.968;8.844;2023-04-25T13:35:45;4.78;;;1.45;;
20890;SDS011;10605;52.968;8.844;2023-04-25T13:38:18;5.30;;;1.40;;
20890;SDS011;10605;52.968;8.844;2023-04-25T13:40:45;6.80;;;1.40;;
20890;SDS011;10605;52.968;8.844;2023-04-25T13:43:11;6.35;;;1.70;;
20890;SDS011;10605;52.968;8.844;2023-04-25T13:45:37;8.60;;;1.48;;
20890;SDS011;10605;52.968;8.844;2023-04-25T13:48:02;6.18;;;1.20;;
20890;SDS011;10605;52.968;8.844;2023-04-25T13:50:28;5.78;;;1.45;;
20890;SDS011;10605;52.968;8.844;2023-04-25T13:52:54;4.18;;;1.50;;
20890;SDS011;10605;52.968;8.844;2023-04-25T13:55:20;5.78;;;1.40;;
20890;SDS011;10605;52.968;8.844;2023-04-25T13:57:45;5.22;;;1.45;;
20890;SDS011;10605;52.968;8.844;2023-04-25T14:00:11;3.90;;;1.00;;
20890;SDS011;10605;52.968;8.844;2023-04-25T14:02:43;3.50;;;1.10;;
20890;SDS011;10605;52.968;8.844;2023-04-25T14:05:09;6.80;;;1.38;;
20890;SDS011;10605;52.968;8.844;2023-04-25T14:07:35;3.47;;;1.10;;
20890;SDS011;10605;52.968;8.844;2023-04-25T14:10:03;5.38;;;0.95;;
20890;SDS011;10605;52.968;8.844;2023-04-25T14:12:30;3.83;;;1.25;;
20890;SDS011;10605;52.968;8.844;2023-04-25T14:14:57;2.78;;;0.90;;
20890;SDS011;10605;52.968;8.844;2023-04-25T14:17:23;41.08;;;3.20;;
20890;SDS011;10605;52.968;8.844;2023-04-25T14:19:49;5.78;;;1.45;;
20890;SDS011;10605;52.968;8.844;2023-04-25T14:22:15;5.50;;;0.93;;
20890;SDS011;10605;52.968;8.844;2023-04-25T14:24:41;2.50;;;1.08;;
20890;SDS011;10605;52.968;8.844;2023-04-25T14:27:06;4.32;;;0.90;;
20890;SDS011;10605;52.968;8.844;2023-04-25T14:29:32;5.78;;;1.10;;
20890;SDS011;10605;52.968;8.844;2023-04-25T14:31:59;3.03;;;1.38;;
20890;SDS011;10605;52.968;8.844;2023-04-25T14:34:25;3.03;;;0.90;;
20890;SDS011;10605;52.968;8.844;2023-04-25T14:36:51;4.78;;;1.30;;
20890;SDS011;10605;52.968;8.844;2023-04-25T14:39:17;3.70;;;1.23;;
20890;SDS011;10605;52.968;8.844;2023-04-25T14:41:43;3.90;;;1.50;;
20890;SDS011;10605;52.968;8.844;2023-04-25T14:44:09;6.10;;;1.40;;
20890;SDS011;10605;52.968;8.844;2023-04-25T14:46:35;9.93;;;1.88;;
20890;SDS011;10605;52.968;8.844;2023-04-25T14:49:01;5.80;;;1.33;;
20890;SDS011;10605;52.968;8.844;2023-04-25T14:51:27;8.45;;;1.45;;
20890;SDS011;10605;52.968;8.844;2023-04-25T14:53:52;8.85;;;2.25;;
20890;SDS011;10605;52.968;8.844;2023-04-25T14:56:18;4.65;;;1.75;;
20890;SDS011;10605;52.968;8.844;2023-04-25T14:58:44;8.15;;;1.75;;